sensor_id;sensor_type;location;lat;lon;timestamp;P1;durP1;ratioP1;P2;durP2;ratioP2
70543;SDS011;58097;48.364;-1.224;2024-02-26T00:01:36;15.00;;;3.15;;
70543;SDS011;58097;48.364;-1.224;2024-02-26T00:04:01;11.23;;;2.92;;
70543;SDS011;58097;48.364;-1.224;2024-02-26T00:06:28;12.15;;;2.60;;
70543;SDS011;58097;48.364;-1.224;2024-02-26T00:08:53;16.60;;;2.65;;
70543;SDS011;58097;48.364;-1.224;2024-02-26T00:11:19;15.18;;;3.13;;
70543;SDS011;58097;48.364;-1.224;2024-02-26T00:13:44;14.48;;;2.47;;
70543;SDS011;58097;48.364;-1.224;2024-02-26T00:16:09;12.27;;;2.80;;
70543;SDS011;58097;48.364;-1.224;2024-02-26T00:18:35;16.65;;;2.85;;
70543;SDS011;58097;48.364;-1.224;2024-02-26T00:21:00;15.95;;;2.65;;
70543;SDS011;58097;48.364;-1.224;2024-02-26T00:23:25;13.25;;;2.63;;
70543;SDS011;58097;48.364;-1.224;2024-02-26T00:25:52;15.40;;;2.92;;
70543;SDS011;58097;48.364;-1.224;2024-02-26T00:28:17;15.27;;;2.88;;
70543;SDS011;58097;48.364;-1.224;2024-02-26T00:30:44;24.27;;;3.00;;
70543;SDS011;58097;48.364;-1.224;2024-02-26T00:33:10;14.90;;;3.13;;
70543;SDS011;58097;48.364;-1.224;2024-02-26T00:35:35;9.45;;;2.50;;
70543;SDS011;58097;48.364;-1.224;2024-02-26T00:38:01;16.42;;;3.20;;
70543;SDS011;58097;48.364;-1.224;2024-02-26T00:40:28;16.77;;;3.22;;
70543;SDS011;58097;48.364;-1.224;2024-02-26T00:42:53;14.00;;;3.15;;
70543;SDS011;58097;48.364;-1.224;2024-02-26T00:45:18;16.50;;;2.95;;
70543;SDS011;58097;48.364;-1.224;2024-02-26T00:47:44;12.57;;;2.80;;
70543;SDS011;58097;48.364;-1.224;2024-02-26T00:50:10;12.93;;;3.22;;
70543;SDS011;58097;48.364;-1.224;2024-02-26T00:52:35;13.02;;;2.90;;
70543;SDS011;58097;48.364;-1.224;2024-02-26T00:55:01;12.68;;;2.65;;
70543;SDS011;58097;48.364;-1.224;2024-02-26T00:57:27;14.73;;;2.92;;
70543;SDS011;58097;48.364;-1.224;2024-02-26T00:59:52;12.52;;;2.50;;
70543;SDS011;58097;48.364;-1.224;2024-02-26T01:02:20;10.25;;;3.13;;
70543;SDS011;58097;48.364;-1.224;2024-02-26T01:04:45;11.63;;;3.08;;
70543;SDS011;58097;48.364;-1.224;2024-02-26T01:07:10;13.30;;;3.20;;
70543;SDS011;58097;48.364;-1.224;2024-02-26T01:09:36;9.10;;;3.15;;
70543;SDS011;58097;48.364;-1.224;2024-02-26T01:12:01;14.43;;;3.45;;
70543;SDS011;58097;48.364;-1.224;2024-02-26T01:14:27;12.55;;;3.28;;
70543;SDS011;58097;48.364;-1.224;2024-02-26T01:16:53;12.70;;;3.20;;
70543;SDS011;58097;48.364;-1.224;2024-02-26T01:19:18;10.95;;;3.03;;
70543;SDS011;58097;48.364;-1.224;2024-02-26T01:21:44;13.07;;;3.65;;
70543;SDS011;58097;48.364;-1.224;2024-02-26T01:24:09;13.13;;;3.67;;
70543;SDS011;58097;48.364;-1.224;2024-02-26T01:26:34;12.38;;;2.90;;
70543;SDS011;58097;48.364;-1.224;2024-02-26T01:29:00;13.20;;;3.30;;
70543;SDS011;58097;48.364;-1.224;2024-02-26T01:31:25;12.00;;;2.80;;
70543;SDS011;58097;48.364;-1.224;2024-02-26T01:33:51;5.35;;;2.30;;
70543;SDS011;58097;48.364;-1.224;2024-02-26T01:36:16;9.40;;;2.33;;
70543;SDS011;58097;48.364;-1.224;2024-02-26T01:38:41;9.45;;;2.35;;
70543;SDS011;58097;48.364;-1.224;2024-02-26T01:41:07;12.93;;;2.65;;
70543;SDS011;58097;48.364;-1.224;2024-02-26T01:43:32;16.08;;;3.55;;
70543;SDS011;58097;48.364;-1.224;2024-02-26T01:45:58;5.18;;;1.95;;
70543;SDS011;58097;48.364;-1.224;2024-02-26T01:48:23;9.35;;;2.40;;
70543;SDS011;58097;48.364;-1.224;2024-02-26T01:50:49;7.72;;;2.17;;
70543;SDS011;58097;48.364;-1.224;2024-02-26T01:53:15;17.73;;;2.65;;
70543;SDS011;58097;48.364;-1.224;2024-02-26T01:55:42;9.30;;;2.72;;
70543;SDS011;58097;48.364;-1.224;2024-02-26T01:58:07;10.23;;;2.85;;
70543;SDS011;58097;48.364;-1.224;2024-02-26T02:00:34;7.10;;;2.42;;
70543;SDS011;58097;48.364;-1.224;2024-02-26T02:03:00;12.40;;;2.70;;
70543;SDS011;58097;48.364;-1.224;2024-02-26T02:05:27;8.35;;;2.28;;
70543;SDS011;58097;48.364;-1.224;2024-02-26T02:07:53;16.35;;;2.90;;
70543;SDS011;58097;48.364;-1.224;2024-02-26T02:10:19;7.32;;;2.35;;
70543;SDS011;58097;48.364;-1.224;2024-02-26T02:12:47;9.82;;;2.45;;
70543;SDS011;58097;48.364;-1.224;2024-02-26T02:15:13;9.45;;;2.58;;
70543;SDS011;58097;48.364;-1.224;2024-02-26T02:17:39;10.07;;;2.30;;
70543;SDS011;58097;48.364;-1.224;2024-02-26T02:20:07;7.57;;;2.40;;
70543;SDS011;58097;48.364;-1.224;2024-02-26T02:22:33;13.55;;;2.72;;
70543;SDS011;58097;48.364;-1.224;2024-02-26T02:24:59;11.98;;;2.80;;
70543;SDS011;58097;48.364;-1.224;2024-02-26T02:27:25;8.68;;;3.10;;
70543;SDS011;58097;48.364;-1.224;2024-02-26T02:29:51;11.23;;;2.90;;
70543;SDS011;58097;48.364;-1.224;2024-02-26T02:32:17;15.48;;;2.78;;
70543;SDS011;58097;48.364;-1.224;2024-02-26T02:34:44;13.85;;;2.90;;
70543;SDS011;58097;48.364;-1.224;2024-02-26T02:37:10;10.93;;;2.70;;
70543;SDS011;58097;48.364;-1.224;2024-02-26T02:39:36;20.83;;;3.58;;
70543;SDS011;58097;48.364;-1.224;2024-02-26T02:42:01;22.63;;;2.97;;
70543;SDS011;58097;48.364;-1.224;2024-02-26T02:44:26;11.30;;;2.83;;
70543;SDS011;58097;48.364;-1.224;2024-02-26T02:46:52;12.52;;;3.28;;
70543;SDS011;58097;48.364;-1.224;2024-02-26T02:49:18;11.95;;;2.75;;
70543;SDS011;58097;48.364;-1.224;2024-02-26T02:51:43;14.30;;;3.50;;
70543;SDS011;58097;48.364;-1.224;2024-02-26T02:54:09;13.43;;;3.28;;
70543;SDS011;58097;48.364;-1.224;2024-02-26T02:56:34;17.50;;;3.65;;
70543;SDS011;58097;48.364;-1.224;2024-02-26T02:59:00;12.02;;;3.47;;
70543;SDS011;58097;48.364;-1.224;2024-02-26T03:01:26;9.73;;;3.75;;
70543;SDS011;58097;48.364;-1.224;2024-02-26T03:03:52;12.35;;;3.60;;
70543;SDS011;58097;48.364;-1.224;2024-02-26T03:06:17;18.15;;;4.55;;
70543;SDS011;58097;48.364;-1.224;2024-02-26T03:08:42;9.07;;;3.47;;
70543;SDS011;58097;48.364;-1.224;2024-02-26T03:11:08;18.60;;;4.93;;
70543;SDS011;58097;48.364;-1.224;2024-02-26T03:13:38;8.85;;;3.58;;
70543;SDS011;58097;48.364;-1.224;2024-02-26T03:16:06;12.70;;;4.20;;
70543;SDS011;58097;48.364;-1.224;2024-02-26T03:18:32;19.05;;;4.28;;
70543;SDS011;58097;48.364;-1.224;2024-02-26T03:20:57;18.60;;;4.13;;
70543;SDS011;58097;48.364;-1.224;2024-02-26T03:23:23;23.63;;;4.10;;
70543;SDS011;58097;48.364;-1.224;2024-02-26T03:25:48;20.02;;;4.28;;
70543;SDS011;58097;48.364;-1.224;2024-02-26T03:28:13;21.00;;;5.28;;
70543;SDS011;58097;48.364;-1.224;2024-02-26T03:30:39;20.75;;;4.68;;
70543;SDS011;58097;48.364;-1.224;2024-02-26T03:33:04;19.70;;;4.38;;
70543;SDS011;58097;48.364;-1.224;2024-02-26T03:35:29;16.30;;;5.10;;
70543;SDS011;58097;48.364;-1.224;2024-02-26T03:37:55;13.82;;;4.65;;
70543;SDS011;58097;48.364;-1.224;2024-02-26T03:40:20;18.48;;;5.65;;
70543;SDS011;58097;48.364;-1.224;2024-02-26T03:42:45;19.48;;;5.28;;
70543;SDS011;58097;48.364;-1.224;2024-02-26T03:45:11;13.55;;;5.18;;
70543;SDS011;58097;48.364;-1.224;2024-02-26T03:47:37;14.95;;;5.95;;
70543;SDS011;58097;48.364;-1.224;2024-02-26T03:50:05;19.70;;;6.22;;
70543;SDS011;58097;48.364;-1.224;2024-02-26T03:52:31;15.02;;;5.18;;
70543;SDS011;58097;48.364;-1.224;2024-02-26T03:54:56;10.35;;;5.45;;
70543;SDS011;58097;48.364;-1.224;2024-02-26T03:57:22;9.68;;;5.10;;
70543;SDS011;58097;48.364;-1.224;2024-02-26T03:59:47;12.90;;;5.45;;
70543;SDS011;58097;48.364;-1.224;2024-02-26T04:02:12;11.23;;;6.15;;
70543;SDS011;58097;48.364;-1.224;2024-02-26T04:04:38;11.95;;;5.28;;
70543;SDS011;58097;48.364;-1.224;2024-02-26T04:07:03;7.63;;;4.63;;
70543;SDS011;58097;48.364;-1.224;2024-02-26T04:09:30;9.80;;;5.10;;
70543;SDS011;58097;48.364;-1.224;2024-02-26T04:11:56;9.75;;;5.05;;
70543;SDS011;58097;48.364;-1.224;2024-02-26T04:14:21;9.65;;;5.35;;
70543;SDS011;58097;48.364;-1.224;2024-02-26T04:16:47;8.40;;;5.10;;
70543;SDS011;58097;48.364;-1.224;2024-02-26T04:19:16;12.10;;;5.60;;
70543;SDS011;58097;48.364;-1.224;2024-02-26T04:21:41;12.02;;;5.70;;
70543;SDS011;58097;48.364;-1.224;2024-02-26T04:24:07;9.60;;;5.38;;
70543;SDS011;58097;48.364;-1.224;2024-02-26T04:26:32;11.00;;;5.50;;
70543;SDS011;58097;48.364;-1.224;2024-02-26T04:28:58;8.07;;;4.53;;
70543;SDS011;58097;48.364;-1.224;2024-02-26T04:31:23;8.75;;;4.75;;
70543;SDS011;58097;48.364;-1.224;2024-02-26T04:33:48;11.50;;;5.75;;
70543;SDS011;58097;48.364;-1.224;2024-02-26T04:36:14;12.32;;;5.30;;
70543;SDS011;58097;48.364;-1.224;2024-02-26T04:38:43;10.10;;;5.80;;
70543;SDS011;58097;48.364;-1.224;2024-02-26T04:41:09;10.90;;;5.13;;
70543;SDS011;58097;48.364;-1.224;2024-02-26T04:43:35;9.05;;;4.65;;
70543;SDS011;58097;48.364;-1.224;2024-02-26T04:48:32;10.38;;;5.03;;
70543;SDS011;58097;48.364;-1.224;2024-02-26T04:50:57;9.50;;;5.10;;
70543;SDS011;58097;48.364;-1.224;2024-02-26T04:53:22;9.07;;;5.00;;
70543;SDS011;58097;48.364;-1.224;2024-02-26T04:55:48;8.73;;;4.72;;
70543;SDS011;58097;48.364;-1.224;2024-02-26T04:58:13;9.65;;;4.35;;
70543;SDS011;58097;48.364;-1.224;2024-02-26T05:00:38;10.25;;;4.95;;
70543;SDS011;58097;48.364;-1.224;2024-02-26T05:03:04;8.48;;;4.15;;
70543;SDS011;58097;48.364;-1.224;2024-02-26T05:05:29;7.88;;;4.35;;
70543;SDS011;58097;48.364;-1.224;2024-02-26T05:07:54;10.23;;;4.63;;
70543;SDS011;58097;48.364;-1.224;2024-02-26T05:10:20;9.60;;;3.92;;
70543;SDS011;58097;48.364;-1.224;2024-02-26T05:12:45;10.73;;;4.25;;
70543;SDS011;58097;48.364;-1.224;2024-02-26T05:15:10;7.90;;;3.53;;
70543;SDS011;58097;48.364;-1.224;2024-02-26T05:17:36;8.45;;;3.58;;
70543;SDS011;58097;48.364;-1.224;2024-02-26T05:20:01;7.97;;;3.15;;
70543;SDS011;58097;48.364;-1.224;2024-02-26T05:22:27;5.85;;;2.25;;
70543;SDS011;58097;48.364;-1.224;2024-02-26T05:24:52;2.50;;;1.50;;
70543;SDS011;58097;48.364;-1.224;2024-02-26T05:27:18;2.95;;;1.55;;
70543;SDS011;58097;48.364;-1.224;2024-02-26T05:29:44;2.22;;;1.60;;
70543;SDS011;58097;48.364;-1.224;2024-02-26T05:32:09;1.90;;;1.50;;
70543;SDS011;58097;48.364;-1.224;2024-02-26T05:34:35;2.30;;;1.70;;
70543;SDS011;58097;48.364;-1.224;2024-02-26T05:37:00;1.75;;;1.42;;
70543;SDS011;58097;48.364;-1.224;2024-02-26T05:39:25;2.70;;;1.40;;
70543;SDS011;58097;48.364;-1.224;2024-02-26T05:41:51;1.40;;;1.05;;
70543;SDS011;58097;48.364;-1.224;2024-02-26T05:44:16;1.75;;;1.30;;
70543;SDS011;58097;48.364;-1.224;2024-02-26T05:46:41;1.60;;;1.30;;
70543;SDS011;58097;48.364;-1.224;2024-02-26T05:49:07;1.88;;;1.40;;
70543;SDS011;58097;48.364;-1.224;2024-02-26T05:51:32;1.75;;;1.30;;
70543;SDS011;58097;48.364;-1.224;2024-02-26T05:53:58;1.38;;;1.17;;
70543;SDS011;58097;48.364;-1.224;2024-02-26T05:56:23;1.58;;;1.13;;
70543;SDS011;58097;48.364;-1.224;2024-02-26T05:58:48;1.30;;;1.10;;
70543;SDS011;58097;48.364;-1.224;2024-02-26T06:01:17;1.35;;;1.00;;
70543;SDS011;58097;48.364;-1.224;2024-02-26T06:03:42;1.63;;;1.13;;
70543;SDS011;58097;48.364;-1.224;2024-02-26T06:06:08;1.58;;;1.17;;
70543;SDS011;58097;48.364;-1.224;2024-02-26T06:08:33;1.60;;;1.42;;
70543;SDS011;58097;48.364;-1.224;2024-02-26T06:10:58;3.70;;;2.38;;
70543;SDS011;58097;48.364;-1.224;2024-02-26T06:13:24;3.08;;;1.58;;
70543;SDS011;58097;48.364;-1.224;2024-02-26T06:15:49;2.85;;;1.33;;
70543;SDS011;58097;48.364;-1.224;2024-02-26T06:18:15;1.75;;;1.20;;
70543;SDS011;58097;48.364;-1.224;2024-02-26T06:20:41;1.77;;;1.20;;
70543;SDS011;58097;48.364;-1.224;2024-02-26T06:23:06;1.50;;;1.27;;
70543;SDS011;58097;48.364;-1.224;2024-02-26T06:25:32;1.58;;;0.80;;
70543;SDS011;58097;48.364;-1.224;2024-02-26T06:27:57;1.38;;;0.93;;
70543;SDS011;58097;48.364;-1.224;2024-02-26T06:30:22;1.33;;;1.00;;
70543;SDS011;58097;48.364;-1.224;2024-02-26T06:32:48;1.13;;;0.85;;
70543;SDS011;58097;48.364;-1.224;2024-02-26T06:35:13;1.35;;;1.10;;
70543;SDS011;58097;48.364;-1.224;2024-02-26T06:37:38;1.23;;;0.90;;
70543;SDS011;58097;48.364;-1.224;2024-02-26T06:40:04;1.33;;;1.00;;
70543;SDS011;58097;48.364;-1.224;2024-02-26T06:42:31;1.38;;;1.02;;
70543;SDS011;58097;48.364;-1.224;2024-02-26T06:44:57;1.20;;;1.10;;
70543;SDS011;58097;48.364;-1.224;2024-02-26T06:47:23;1.42;;;1.10;;
70543;SDS011;58097;48.364;-1.224;2024-02-26T06:49:48;2.22;;;1.10;;
70543;SDS011;58097;48.364;-1.224;2024-02-26T06:52:13;1.40;;;1.17;;
70543;SDS011;58097;48.364;-1.224;2024-02-26T06:54:39;2.67;;;1.17;;
70543;SDS011;58097;48.364;-1.224;2024-02-26T06:57:04;3.65;;;1.20;;
70543;SDS011;58097;48.364;-1.224;2024-02-26T06:59:29;1.38;;;1.20;;
70543;SDS011;58097;48.364;-1.224;2024-02-26T07:01:55;1.45;;;1.00;;
70543;SDS011;58097;48.364;-1.224;2024-02-26T07:04:20;2.72;;;1.20;;
70543;SDS011;58097;48.364;-1.224;2024-02-26T07:06:45;3.15;;;1.30;;
70543;SDS011;58097;48.364;-1.224;2024-02-26T07:09:12;1.75;;;1.05;;
70543;SDS011;58097;48.364;-1.224;2024-02-26T07:11:37;1.13;;;1.02;;
70543;SDS011;58097;48.364;-1.224;2024-02-26T07:14:04;1.92;;;0.80;;
70543;SDS011;58097;48.364;-1.224;2024-02-26T07:16:29;2.45;;;0.50;;
70543;SDS011;58097;48.364;-1.224;2024-02-26T07:18:55;1.58;;;0.80;;
70543;SDS011;58097;48.364;-1.224;2024-02-26T07:21:21;2.10;;;0.80;;
70543;SDS011;58097;48.364;-1.224;2024-02-26T07:23:46;0.85;;;0.68;;
70543;SDS011;58097;48.364;-1.224;2024-02-26T07:26:11;2.15;;;0.80;;
70543;SDS011;58097;48.364;-1.224;2024-02-26T07:28:37;1.75;;;0.73;;
70543;SDS011;58097;48.364;-1.224;2024-02-26T07:31:02;0.77;;;0.60;;
70543;SDS011;58097;48.364;-1.224;2024-02-26T07:33:28;3.65;;;0.60;;
70543;SDS011;58097;48.364;-1.224;2024-02-26T07:35:53;0.75;;;0.55;;
70543;SDS011;58097;48.364;-1.224;2024-02-26T07:38:19;2.15;;;0.60;;
70543;SDS011;58097;48.364;-1.224;2024-02-26T07:40:44;2.40;;;0.73;;
70543;SDS011;58097;48.364;-1.224;2024-02-26T07:43:10;1.65;;;0.60;;
70543;SDS011;58097;48.364;-1.224;2024-02-26T07:45:35;2.28;;;0.95;;
70543;SDS011;58097;48.364;-1.224;2024-02-26T07:48:01;2.40;;;0.60;;
70543;SDS011;58097;48.364;-1.224;2024-02-26T07:50:27;2.63;;;0.93;;
70543;SDS011;58097;48.364;-1.224;2024-02-26T07:52:52;1.38;;;0.50;;
70543;SDS011;58097;48.364;-1.224;2024-02-26T07:55:18;4.72;;;0.90;;
70543;SDS011;58097;48.364;-1.224;2024-02-26T07:57:44;4.93;;;1.08;;
70543;SDS011;58097;48.364;-1.224;2024-02-26T08:00:09;4.25;;;0.80;;
70543;SDS011;58097;48.364;-1.224;2024-02-26T08:02:35;4.22;;;1.00;;
70543;SDS011;58097;48.364;-1.224;2024-02-26T08:05:01;3.47;;;0.77;;
70543;SDS011;58097;48.364;-1.224;2024-02-26T08:07:27;3.90;;;0.95;;
70543;SDS011;58097;48.364;-1.224;2024-02-26T08:09:53;3.92;;;1.05;;
70543;SDS011;58097;48.364;-1.224;2024-02-26T08:12:18;394.05;;;16.88;;
70543;SDS011;58097;48.364;-1.224;2024-02-26T08:14:44;1.85;;;0.88;;
70543;SDS011;58097;48.364;-1.224;2024-02-26T08:17:09;2.65;;;0.70;;
70543;SDS011;58097;48.364;-1.224;2024-02-26T08:19:35;6.00;;;1.73;;
70543;SDS011;58097;48.364;-1.224;2024-02-26T08:22:02;2.50;;;0.80;;
70543;SDS011;58097;48.364;-1.224;2024-02-26T08:24:27;1.95;;;0.80;;
70543;SDS011;58097;48.364;-1.224;2024-02-26T08:26:53;2.47;;;0.98;;
70543;SDS011;58097;48.364;-1.224;2024-02-26T10:18:48;3.30;;;0.80;;
70543;SDS011;58097;48.364;-1.224;2024-02-26T10:21:18;1.33;;;0.45;;
70543;SDS011;58097;48.364;-1.224;2024-02-26T10:23:47;4.53;;;0.88;;
70543;SDS011;58097;48.364;-1.224;2024-02-26T10:26:13;5.38;;;1.05;;
70543;SDS011;58097;48.364;-1.224;2024-02-26T10:28:41;3.63;;;0.80;;
70543;SDS011;58097;48.364;-1.224;2024-02-26T10:31:08;4.40;;;1.00;;
70543;SDS011;58097;48.364;-1.224;2024-02-26T10:33:37;3.58;;;0.82;;
70543;SDS011;58097;48.364;-1.224;2024-02-26T10:36:04;3.60;;;0.70;;
70543;SDS011;58097;48.364;-1.224;2024-02-26T10:38:30;3.72;;;0.70;;
70543;SDS011;58097;48.364;-1.224;2024-02-26T10:40:57;2.92;;;0.80;;
70543;SDS011;58097;48.364;-1.224;2024-02-26T10:43:22;6.95;;;0.90;;
70543;SDS011;58097;48.364;-1.224;2024-02-26T10:45:47;2.72;;;0.70;;
70543;SDS011;58097;48.364;-1.224;2024-02-26T10:48:13;3.00;;;0.70;;
70543;SDS011;58097;48.364;-1.224;2024-02-26T10:50:40;3.33;;;0.70;;
70543;SDS011;58097;48.364;-1.224;2024-02-26T10:53:07;5.47;;;0.70;;
70543;SDS011;58097;48.364;-1.224;2024-02-26T10:55:40;3.55;;;0.88;;
70543;SDS011;58097;48.364;-1.224;2024-02-26T10:58:06;5.25;;;1.10;;
70543;SDS011;58097;48.364;-1.224;2024-02-26T11:00:33;3.13;;;0.98;;
70543;SDS011;58097;48.364;-1.224;2024-02-26T11:02:59;4.47;;;0.85;;
70543;SDS011;58097;48.364;-1.224;2024-02-26T11:05:28;11.50;;;1.75;;
70543;SDS011;58097;48.364;-1.224;2024-02-26T11:07:53;6.32;;;0.90;;
70543;SDS011;58097;48.364;-1.224;2024-02-26T11:10:20;5.15;;;0.90;;
70543;SDS011;58097;48.364;-1.224;2024-02-26T11:12:47;8.02;;;1.20;;
70543;SDS011;58097;48.364;-1.224;2024-02-26T11:15:14;5.32;;;1.08;;
70543;SDS011;58097;48.364;-1.224;2024-02-26T11:17:41;7.10;;;0.90;;
70543;SDS011;58097;48.364;-1.224;2024-02-26T11:20:09;3.78;;;0.70;;
70543;SDS011;58097;48.364;-1.224;2024-02-26T11:22:37;1.92;;;0.73;;
70543;SDS011;58097;48.364;-1.224;2024-02-26T11:25:03;5.22;;;0.90;;
70543;SDS011;58097;48.364;-1.224;2024-02-26T11:27:33;4.07;;;0.77;;
70543;SDS011;58097;48.364;-1.224;2024-02-26T11:30:03;6.15;;;1.05;;
70543;SDS011;58097;48.364;-1.224;2024-02-26T11:32:33;3.90;;;0.90;;
70543;SDS011;58097;48.364;-1.224;2024-02-26T11:35:00;43.10;;;2.42;;
70543;SDS011;58097;48.364;-1.224;2024-02-26T11:37:26;1.90;;;0.70;;
70543;SDS011;58097;48.364;-1.224;2024-02-26T11:39:51;1.25;;;0.63;;
70543;SDS011;58097;48.364;-1.224;2024-02-26T11:42:17;3.08;;;0.73;;
70543;SDS011;58097;48.364;-1.224;2024-02-26T11:44:48;3.95;;;0.82;;
70543;SDS011;58097;48.364;-1.224;2024-02-26T11:47:17;8.82;;;1.00;;
70543;SDS011;58097;48.364;-1.224;2024-02-26T11:49:44;4.53;;;1.10;;
70543;SDS011;58097;48.364;-1.224;2024-02-26T11:52:09;5.57;;;1.05;;
70543;SDS011;58097;48.364;-1.224;2024-02-26T11:57:28;4.82;;;0.88;;
70543;SDS011;58097;48.364;-1.224;2024-02-26T12:00:11;9.40;;;0.80;;
70543;SDS011;58097;48.364;-1.224;2024-02-26T12:05:15;9.95;;;1.08;;
70543;SDS011;58097;48.364;-1.224;2024-02-26T12:07:46;7.15;;;1.00;;
70543;SDS011;58097;48.364;-1.224;2024-02-26T12:10:20;2.27;;;0.90;;
70543;SDS011;58097;48.364;-1.224;2024-02-26T12:12:54;7.93;;;0.98;;
70543;SDS011;58097;48.364;-1.224;2024-02-26T12:15:22;4.00;;;0.77;;
70543;SDS011;58097;48.364;-1.224;2024-02-26T12:17:51;6.93;;;1.00;;
70543;SDS011;58097;48.364;-1.224;2024-02-26T12:20:18;4.28;;;0.70;;
70543;SDS011;58097;48.364;-1.224;2024-02-26T12:22:45;4.85;;;1.00;;
70543;SDS011;58097;48.364;-1.224;2024-02-26T12:25:14;4.63;;;0.88;;
70543;SDS011;58097;48.364;-1.224;2024-02-26T12:27:41;6.90;;;0.82;;
70543;SDS011;58097;48.364;-1.224;2024-02-26T12:30:07;1.90;;;0.65;;
70543;SDS011;58097;48.364;-1.224;2024-02-26T12:32:33;3.85;;;0.80;;
70543;SDS011;58097;48.364;-1.224;2024-02-26T12:34:59;8.82;;;1.48;;
70543;SDS011;58097;48.364;-1.224;2024-02-26T12:37:25;3.38;;;0.90;;
70543;SDS011;58097;48.364;-1.224;2024-02-26T12:39:52;2.95;;;0.88;;
70543;SDS011;58097;48.364;-1.224;2024-02-26T12:42:17;11.32;;;1.00;;
70543;SDS011;58097;48.364;-1.224;2024-02-26T12:44:44;4.38;;;1.35;;
70543;SDS011;58097;48.364;-1.224;2024-02-26T12:47:12;2.38;;;0.70;;
70543;SDS011;58097;48.364;-1.224;2024-02-26T12:49:46;2.45;;;0.70;;
70543;SDS011;58097;48.364;-1.224;2024-02-26T12:52:13;2.95;;;0.70;;
70543;SDS011;58097;48.364;-1.224;2024-02-26T12:54:38;2.63;;;0.60;;
70543;SDS011;58097;48.364;-1.224;2024-02-26T12:57:04;1.60;;;0.60;;
70543;SDS011;58097;48.364;-1.224;2024-02-26T12:59:31;3.20;;;0.73;;
70543;SDS011;58097;48.364;-1.224;2024-02-26T13:01:58;4.28;;;1.00;;
70543;SDS011;58097;48.364;-1.224;2024-02-26T13:04:24;4.72;;;0.77;;
70543;SDS011;58097;48.364;-1.224;2024-02-26T13:06:52;3.28;;;0.60;;
70543;SDS011;58097;48.364;-1.224;2024-02-26T13:09:18;4.93;;;1.02;;
70543;SDS011;58097;48.364;-1.224;2024-02-26T13:11:44;4.03;;;0.98;;
70543;SDS011;58097;48.364;-1.224;2024-02-26T13:14:31;1.75;;;0.70;;
70543;SDS011;58097;48.364;-1.224;2024-02-26T13:17:00;7.45;;;1.15;;
70543;SDS011;58097;48.364;-1.224;2024-02-26T13:19:26;4.97;;;1.08;;
70543;SDS011;58097;48.364;-1.224;2024-02-26T13:21:52;2.88;;;0.80;;
70543;SDS011;58097;48.364;-1.224;2024-02-26T13:24:19;2.33;;;0.70;;
70543;SDS011;58097;48.364;-1.224;2024-02-26T13:26:45;1.80;;;0.95;;
70543;SDS011;58097;48.364;-1.224;2024-02-26T13:29:16;4.68;;;1.00;;
70543;SDS011;58097;48.364;-1.224;2024-02-26T13:31:42;4.47;;;1.55;;
70543;SDS011;58097;48.364;-1.224;2024-02-26T13:34:07;4.32;;;1.05;;
70543;SDS011;58097;48.364;-1.224;2024-02-26T13:36:33;4.22;;;1.10;;
70543;SDS011;58097;48.364;-1.224;2024-02-26T13:38:58;3.30;;;0.70;;
70543;SDS011;58097;48.364;-1.224;2024-02-26T13:41:25;3.03;;;0.93;;
70543;SDS011;58097;48.364;-1.224;2024-02-26T13:43:51;6.05;;;0.88;;
70543;SDS011;58097;48.364;-1.224;2024-02-26T13:46:16;6.10;;;1.05;;
70543;SDS011;58097;48.364;-1.224;2024-02-26T13:48:42;5.47;;;0.98;;
70543;SDS011;58097;48.364;-1.224;2024-02-26T13:51:07;8.88;;;1.10;;
70543;SDS011;58097;48.364;-1.224;2024-02-26T13:53:33;2.28;;;0.70;;
70543;SDS011;58097;48.364;-1.224;2024-02-26T13:55:58;1.88;;;0.80;;
70543;SDS011;58097;48.364;-1.224;2024-02-26T13:58:26;3.50;;;0.90;;
70543;SDS011;58097;48.364;-1.224;2024-02-26T14:00:52;4.95;;;0.73;;
70543;SDS011;58097;48.364;-1.224;2024-02-26T14:03:18;2.45;;;0.70;;
70543;SDS011;58097;48.364;-1.224;2024-02-26T14:05:44;4.22;;;0.90;;
70543;SDS011;58097;48.364;-1.224;2024-02-26T14:08:09;1.25;;;0.50;;
70543;SDS011;58097;48.364;-1.224;2024-02-26T14:10:34;3.50;;;0.82;;
70543;SDS011;58097;48.364;-1.224;2024-02-26T14:13:00;6.07;;;1.23;;
70543;SDS011;58097;48.364;-1.224;2024-02-26T14:15:27;7.22;;;1.00;;
70543;SDS011;58097;48.364;-1.224;2024-02-26T14:17:53;1.98;;;1.05;;
70543;SDS011;58097;48.364;-1.224;2024-02-26T14:20:22;6.18;;;1.27;;
70543;SDS011;58097;48.364;-1.224;2024-02-26T14:22:49;4.28;;;1.30;;
70543;SDS011;58097;48.364;-1.224;2024-02-26T14:25:16;4.43;;;1.20;;
70543;SDS011;58097;48.364;-1.224;2024-02-26T14:27:42;4.88;;;1.23;;
70543;SDS011;58097;48.364;-1.224;2024-02-26T14:30:07;4.47;;;1.02;;
70543;SDS011;58097;48.364;-1.224;2024-02-26T14:32:33;12.52;;;1.50;;
70543;SDS011;58097;48.364;-1.224;2024-02-26T14:35:01;6.88;;;1.50;;
70543;SDS011;58097;48.364;-1.224;2024-02-26T14:37:28;3.92;;;1.10;;
70543;SDS011;58097;48.364;-1.224;2024-02-26T14:39:53;3.20;;;1.00;;
70543;SDS011;58097;48.364;-1.224;2024-02-26T14:42:18;4.38;;;0.93;;
70543;SDS011;58097;48.364;-1.224;2024-02-26T14:44:44;7.03;;;1.40;;
70543;SDS011;58097;48.364;-1.224;2024-02-26T14:47:11;6.75;;;1.63;;
70543;SDS011;58097;48.364;-1.224;2024-02-26T14:49:36;3.53;;;1.10;;
70543;SDS011;58097;48.364;-1.224;2024-02-26T14:52:01;4.85;;;1.50;;
70543;SDS011;58097;48.364;-1.224;2024-02-26T14:54:28;7.18;;;1.40;;
70543;SDS011;58097;48.364;-1.224;2024-02-26T14:56:57;10.10;;;1.05;;
70543;SDS011;58097;48.364;-1.224;2024-02-26T14:59:23;8.27;;;1.60;;
70543;SDS011;58097;48.364;-1.224;2024-02-26T15:01:48;10.15;;;1.33;;
70543;SDS011;58097;48.364;-1.224;2024-02-26T15:04:13;6.70;;;1.63;;
70543;SDS011;58097;48.364;-1.224;2024-02-26T15:06:39;4.30;;;1.40;;
70543;SDS011;58097;48.364;-1.224;2024-02-26T15:09:05;7.00;;;1.60;;
70543;SDS011;58097;48.364;-1.224;2024-02-26T15:11:30;5.28;;;1.48;;
70543;SDS011;58097;48.364;-1.224;2024-02-26T15:13:55;5.38;;;1.45;;
70543;SDS011;58097;48.364;-1.224;2024-02-26T15:16:21;8.90;;;1.88;;
70543;SDS011;58097;48.364;-1.224;2024-02-26T15:18:46;9.43;;;2.03;;
70543;SDS011;58097;48.364;-1.224;2024-02-26T15:21:12;7.03;;;1.48;;
70543;SDS011;58097;48.364;-1.224;2024-02-26T15:23:38;7.50;;;1.40;;
70543;SDS011;58097;48.364;-1.224;2024-02-26T15:26:04;8.55;;;1.33;;
70543;SDS011;58097;48.364;-1.224;2024-02-26T15:28:30;5.90;;;1.55;;
70543;SDS011;58097;48.364;-1.224;2024-02-26T15:30:55;12.82;;;2.03;;
70543;SDS011;58097;48.364;-1.224;2024-02-26T15:33:20;10.75;;;1.48;;
70543;SDS011;58097;48.364;-1.224;2024-02-26T15:35:46;12.90;;;2.50;;
70543;SDS011;58097;48.364;-1.224;2024-02-26T15:38:11;15.32;;;1.98;;
70543;SDS011;58097;48.364;-1.224;2024-02-26T15:40:38;5.78;;;1.77;;
70543;SDS011;58097;48.364;-1.224;2024-02-26T15:43:03;9.95;;;2.08;;
70543;SDS011;58097;48.364;-1.224;2024-02-26T15:45:29;6.82;;;1.60;;
70543;SDS011;58097;48.364;-1.224;2024-02-26T15:47:58;11.52;;;1.67;;
70543;SDS011;58097;48.364;-1.224;2024-02-26T15:50:24;8.80;;;1.60;;
70543;SDS011;58097;48.364;-1.224;2024-02-26T15:52:49;11.82;;;2.38;;
70543;SDS011;58097;48.364;-1.224;2024-02-26T15:55:16;9.30;;;2.13;;
70543;SDS011;58097;48.364;-1.224;2024-02-26T15:57:41;11.20;;;2.30;;
70543;SDS011;58097;48.364;-1.224;2024-02-26T16:00:07;9.43;;;1.85;;
70543;SDS011;58097;48.364;-1.224;2024-02-26T16:02:36;13.55;;;1.73;;
70543;SDS011;58097;48.364;-1.224;2024-02-26T16:05:02;16.67;;;2.83;;
70543;SDS011;58097;48.364;-1.224;2024-02-26T16:07:30;13.88;;;1.98;;
70543;SDS011;58097;48.364;-1.224;2024-02-26T16:10:08;8.93;;;1.92;;
70543;SDS011;58097;48.364;-1.224;2024-02-26T16:15:08;6.07;;;1.60;;
70543;SDS011;58097;48.364;-1.224;2024-02-26T16:17:35;10.77;;;2.25;;
70543;SDS011;58097;48.364;-1.224;2024-02-26T16:20:05;15.40;;;2.08;;
70543;SDS011;58097;48.364;-1.224;2024-02-26T16:22:33;9.82;;;2.33;;
70543;SDS011;58097;48.364;-1.224;2024-02-26T16:25:01;17.75;;;2.05;;